Time;durP1;ratioP1;P1;durP2;ratioP2;P2;SDS_P1;SDS_P2;PMS_P1;PMS_P2;Temp;Humidity;BMP_temperature;BMP_pressure;BME280_temperature;BME280_humidity;BME280_pressure;Samples;Min_cycle;Max_cycle;Signal;HPM_P1;HPM_P2
2022/11/13 00:02:25;;;;;;;7.38;5.95;;;10.30;81.10;;;;;;5073233;28;20025;-30
2022/11/13 00:04:51;;;;;;;10.93;6.25;;;10.30;81.00;;;;;;5073056;28;20036;-33
2022/11/13 00:07:16;;;;;;;7.75;5.95;;;10.30;80.90;;;;;;5073114;28;20035;-31
2022/11/13 00:09:42;;;;;;;8.07;5.60;;;10.30;80.90;;;;;;5072644;28;20040;-27
2022/11/13 00:12:07;;;;;;;6.72;5.30;;;10.40;80.80;;;;;;5072986;28;20016;-33
2022/11/13 00:14:33;;;;;;;8.07;5.28;;;10.40;80.70;;;;;;5072944;28;20062;-26
2022/11/13 00:16:58;;;;;;;8.48;5.57;;;10.40;80.60;;;;;;5054843;28;20060;-30
2022/11/13 00:19:24;;;;;;;8.55;5.38;;;10.40;80.50;;;;;;5072805;28;20170;-26
2022/11/13 00:21:49;;;;;;;7.55;5.22;;;10.50;80.40;;;;;;5072624;28;20027;-28
2022/11/13 00:24:15;;;;;;;6.45;5.05;;;10.50;80.30;;;;;;5072705;28;20158;-27
2022/11/13 00:26:41;;;;;;;6.55;4.43;;;10.50;80.20;;;;;;5072681;28;20411;-31
2022/11/13 00:29:07;;;;;;;6.63;4.78;;;10.60;80.10;;;;;;5072670;28;20021;-30
2022/11/13 00:31:33;;;;;;;7.80;5.10;;;10.60;79.90;;;;;;5072669;28;20483;-28
2022/11/13 00:33:59;;;;;;;6.03;4.82;;;10.70;79.70;;;;;;5072751;28;20078;-30
2022/11/13 00:36:27;;;;;;;6.10;4.50;;;10.70;79.50;;;;;;5072819;28;20035;-28
2022/11/13 00:38:53;;;;;;;7.70;4.30;;;10.80;79.40;;;;;;5072730;28;20056;-29
2022/11/13 00:41:19;;;;;;;6.75;4.72;;;10.80;79.20;;;;;;5072933;28;20380;-43
2022/11/13 00:43:45;;;;;;;6.00;4.30;;;10.80;79.10;;;;;;5072510;28;20020;-41
2022/11/13 00:46:11;;;;;;;7.35;4.47;;;10.90;79.00;;;;;;5072449;28;20499;-43
2022/11/13 00:48:36;;;;;;;5.25;3.88;;;10.80;78.90;;;;;;5072411;28;20052;-39
2022/11/13 00:51:03;;;;;;;6.05;4.32;;;10.80;78.80;;;;;;5072732;28;20089;-43
2022/11/13 00:53:28;;;;;;;6.72;4.30;;;10.90;78.70;;;;;;5072227;28;20064;-41
2022/11/13 00:55:54;;;;;;;7.50;4.50;;;10.90;78.60;;;;;;5072237;28;20495;-41
2022/11/13 00:58:20;;;;;;;4.40;4.00;;;10.90;78.50;;;;;;5072170;28;20032;-42
2022/11/13 01:00:47;;;;;;;7.38;3.88;;;10.90;78.40;;;;;;5071890;28;20139;-40
2022/11/13 01:03:14;;;;;;;4.88;3.70;;;10.90;78.30;;;;;;5072054;28;20017;-42
2022/11/13 01:05:43;;;;;;;6.07;4.13;;;10.90;78.30;;;;;;5071911;28;20021;-41
2022/11/13 01:08:10;;;;;;;4.93;3.95;;;10.90;78.30;;;;;;5054104;28;20013;-43
2022/11/13 01:10:40;;;;;;;5.80;4.32;;;10.80;78.20;;;;;;5072281;28;20337;-42
2022/11/13 01:13:06;;;;;;;8.68;4.43;;;10.80;78.20;;;;;;5072267;28;20074;-42
2022/11/13 01:15:31;;;;;;;7.47;4.43;;;10.80;78.30;;;;;;5072099;28;20109;-42
2022/11/13 01:17:57;;;;;;;6.65;4.35;;;10.70;78.30;;;;;;5071924;28;20028;-42
2022/11/13 01:20:23;;;;;;;7.10;4.45;;;10.70;78.40;;;;;;5071821;28;20361;-39
2022/11/13 01:22:49;;;;;;;7.28;5.07;;;10.60;78.40;;;;;;5070957;28;20017;-42
2022/11/13 01:25:15;;;;;;;6.38;4.50;;;10.60;78.50;;;;;;5071843;28;20019;-42
2022/11/13 01:27:41;;;;;;;7.13;4.88;;;10.50;78.50;;;;;;5071987;28;20012;-41
2022/11/13 01:30:07;;;;;;;8.18;4.78;;;10.50;78.50;;;;;;5071693;28;20024;-39
2022/11/13 01:32:33;;;;;;;6.65;4.63;;;10.50;78.50;;;;;;5071836;28;20042;-36
2022/11/13 01:34:58;;;;;;;7.63;4.38;;;10.40;78.40;;;;;;5071512;28;20016;-29
2022/11/13 01:37:24;;;;;;;8.43;4.65;;;10.40;78.40;;;;;;5071828;28;20021;-32
2022/11/13 01:39:50;;;;;;;6.80;4.70;;;10.30;78.50;;;;;;5071727;28;20088;-30
2022/11/13 01:42:15;;;;;;;6.32;4.32;;;10.30;78.50;;;;;;5071464;28;20452;-33
2022/11/13 01:44:52;;;;;;;4.90;4.18;;;10.30;78.60;;;;;;5072180;28;20021;-33
2022/11/13 01:47:19;;;;;;;5.32;4.00;;;10.30;78.50;;;;;;5053469;28;20141;-31
2022/11/13 01:49:46;;;;;;;5.75;4.20;;;10.20;78.50;;;;;;5071482;28;20016;-31
2022/11/13 01:52:17;;;;;;;5.60;4.18;;;10.20;78.50;;;;;;5071322;28;20112;-33
2022/11/13 01:54:49;;;;;;;6.85;4.00;;;10.20;78.60;;;;;;5071314;28;20025;-33
2022/11/13 01:57:15;;;;;;;5.30;4.20;;;10.10;78.60;;;;;;5071315;28;20035;-32
2022/11/13 01:59:46;;;;;;;5.20;3.78;;;10.10;78.60;;;;;;5053144;28;20508;-32
2022/11/13 02:02:12;;;;;;;7.25;4.10;;;10.10;78.60;;;;;;5052806;28;20037;-34
2022/11/13 02:04:38;;;;;;;5.95;4.07;;;10.10;78.60;;;;;;5071128;28;20032;-30
2022/11/13 02:07:09;;;;;;;5.13;3.70;;;10.10;78.50;;;;;;5071599;28;20017;-30
2022/11/13 02:09:41;;;;;;;7.70;4.40;;;10.10;78.50;;;;;;5071220;28;20032;-32
2022/11/13 02:12:10;;;;;;;5.47;3.85;;;10.10;78.40;;;;;;5071107;28;20637;-28
2022/11/13 02:14:39;;;;;;;5.05;3.67;;;10.10;78.40;;;;;;5071077;28;20028;-31
2022/11/13 02:17:08;;;;;;;9.52;4.63;;;10.10;78.30;;;;;;5071142;28;20016;-30
2022/11/13 02:19:42;;;;;;;6.20;4.07;;;10.10;78.20;;;;;;5071090;28;20036;-31
2022/11/13 02:22:22;;;;;;;5.90;3.83;;;10.10;78.20;;;;;;5070881;28;20082;-32
2022/11/13 02:24:48;;;;;;;4.90;4.05;;;10.10;78.00;;;;;;5070989;28;20024;-32
2022/11/13 02:27:21;;;;;;;4.97;3.60;;;10.10;78.00;;;;;;5071354;28;20009;-31
2022/11/13 02:29:46;;;;;;;5.57;3.72;;;10.10;77.90;;;;;;5071271;28;20510;-32
2022/11/13 02:32:12;;;;;;;6.13;3.97;;;10.10;77.90;;;;;;5071204;28;20024;-33
2022/11/13 02:34:37;;;;;;;5.07;3.83;;;10.10;77.90;;;;;;5075115;28;20025;-34
2022/11/13 02:37:03;;;;;;;5.75;3.90;;;10.20;77.80;;;;;;5075359;28;20028;-31
2022/11/13 02:39:28;;;;;;;5.95;3.55;;;10.20;77.70;;;;;;5075093;28;20021;-34
2022/11/13 02:41:54;;;;;;;7.68;3.65;;;10.20;77.50;;;;;;5075098;28;20397;-42
2022/11/13 02:44:19;;;;;;;4.90;3.78;;;10.20;77.40;;;;;;5075064;28;20476;-41
2022/11/13 02:46:45;;;;;;;5.85;4.30;;;10.20;77.30;;;;;;5056875;28;20201;-38
2022/11/13 02:49:11;;;;;;;4.45;3.80;;;10.20;77.10;;;;;;5074874;28;20029;-39
2022/11/13 02:51:36;;;;;;;4.53;3.58;;;10.20;77.10;;;;;;5074839;28;20444;-40
2022/11/13 02:54:02;;;;;;;5.50;3.90;;;10.20;77.00;;;;;;5075005;28;20036;-42
2022/11/13 02:56:27;;;;;;;4.78;3.80;;;10.20;76.90;;;;;;5056717;28;20035;-40
2022/11/13 02:58:53;;;;;;;6.18;4.07;;;10.20;76.90;;;;;;5074718;28;20020;-43
2022/11/13 03:01:18;;;;;;;6.50;4.25;;;10.20;76.90;;;;;;5074277;28;20036;-40
2022/11/13 03:03:44;;;;;;;4.80;3.88;;;10.20;76.80;;;;;;5074490;28;20031;-38
2022/11/13 03:06:10;;;;;;;5.32;3.97;;;10.20;76.90;;;;;;5074319;28;20070;-39
2022/11/13 03:08:35;;;;;;;5.93;4.55;;;10.20;76.80;;;;;;5074634;28;20013;-42
2022/11/13 03:11:07;;;;;;;5.43;4.13;;;10.20;76.80;;;;;;5074460;28;20032;-41
2022/11/13 03:13:32;;;;;;;5.72;4.10;;;10.20;76.70;;;;;;5074273;28;20029;-43
2022/11/13 03:16:11;;;;;;;5.85;4.40;;;10.20;76.70;;;;;;5074191;28;20099;-41
2022/11/13 03:18:37;;;;;;;5.20;3.78;;;10.20;76.70;;;;;;5074186;28;20033;-37
2022/11/13 03:21:11;;;;;;;5.57;4.38;;;10.20;76.70;;;;;;5073901;28;20021;-38
2022/11/13 03:23:38;;;;;;;6.10;4.30;;;10.10;76.60;;;;;;5074111;28;20115;-38
2022/11/13 03:26:07;;;;;;;5.75;4.22;;;10.10;76.70;;;;;;5073915;28;20044;-42
2022/11/13 03:28:34;;;;;;;5.32;4.10;;;10.10;76.60;;;;;;5073775;28;20020;-39
2022/11/13 03:30:59;;;;;;;6.45;4.07;;;10.10;76.60;;;;;;5074153;28;20091;-42
2022/11/13 03:33:25;;;;;;;4.95;4.18;;;10.10;76.70;;;;;;5073760;28;20079;-40
2022/11/13 03:35:50;;;;;;;5.22;4.22;;;10.10;76.60;;;;;;5073643;28;20067;-34
2022/11/13 03:38:16;;;;;;;5.95;4.45;;;10.10;76.70;;;;;;5073729;28;20029;-30
2022/11/13 03:40:42;;;;;;;6.00;4.97;;;10.10;76.70;;;;;;5073653;28;20056;-30
2022/11/13 03:43:08;;;;;;;6.03;4.60;;;10.00;76.60;;;;;;5073546;28;20028;-28
2022/11/13 03:45:34;;;;;;;6.07;4.63;;;10.00;76.60;;;;;;5072804;28;20021;-31
2022/11/13 03:47:59;;;;;;;6.82;4.95;;;10.00;76.60;;;;;;5055889;28;20021;-41
2022/11/13 03:50:25;;;;;;;4.88;4.35;;;9.90;76.50;;;;;;5073520;28;20028;-35
2022/11/13 03:52:52;;;;;;;6.10;4.57;;;9.90;77.20;;;;;;5073582;28;20047;-31
2022/11/13 03:55:17;;;;;;;5.53;4.40;;;9.90;76.50;;;;;;5073531;28;20158;-32
2022/11/13 03:57:43;;;;;;;5.60;4.50;;;9.90;76.50;;;;;;5073526;28;20036;-32
2022/11/13 04:00:09;;;;;;;6.20;4.22;;;9.90;76.50;;;;;;5073125;28;20021;-32
2022/11/13 04:02:35;;;;;;;8.15;4.60;;;9.90;76.50;;;;;;5073217;28;20436;-32
2022/11/13 04:05:01;;;;;;;6.63;4.97;;;9.80;76.50;;;;;;5073021;28;20016;-34
2022/11/13 04:07:26;;;;;;;6.68;4.97;;;9.80;76.40;;;;;;5073321;28;20491;-33
2022/11/13 04:09:52;;;;;;;7.60;5.20;;;9.80;76.30;;;;;;5073219;28;20020;-32
2022/11/13 04:12:17;;;;;;;8.07;5.00;;;9.80;76.30;;;;;;5072995;28;20021;-32
2022/11/13 04:14:43;;;;;;;6.13;4.95;;;9.80;76.30;;;;;;5072974;28;20035;-32
2022/11/13 04:17:08;;;;;;;6.15;4.70;;;9.70;76.20;;;;;;5054957;28;20027;-34
2022/11/13 04:19:34;;;;;;;5.68;4.70;;;9.70;76.30;;;;;;5073055;28;20024;-39
2022/11/13 04:21:59;;;;;;;7.05;4.95;;;9.70;76.30;;;;;;5073153;28;20029;-34
2022/11/13 04:24:25;;;;;;;6.15;4.88;;;9.70;76.40;;;;;;5072925;28;20130;-32
2022/11/13 04:26:50;;;;;;;6.13;5.03;;;9.60;76.40;;;;;;5072833;28;20029;-38
2022/11/13 04:29:16;;;;;;;6.38;5.18;;;9.60;76.50;;;;;;5072853;28;20020;-32
2022/11/13 04:31:42;;;;;;;5.97;4.97;;;9.60;77.00;;;;;;5072816;28;20491;-46
2022/11/13 04:34:07;;;;;;;6.75;5.22;;;9.50;76.30;;;;;;5072849;28;20410;-32
2022/11/13 04:36:33;;;;;;;7.90;5.80;;;9.50;76.30;;;;;;5072879;28;20187;-32
2022/11/13 04:38:58;;;;;;;7.15;5.47;;;9.50;76.40;;;;;;5072756;28;20074;-32
2022/11/13 04:44:08;;;;;;;6.80;5.00;;;9.50;76.50;;;;;;5072632;28;20059;-32
2022/11/13 04:46:34;;;;;;;7.60;5.80;;;9.40;76.40;;;;;;5072344;28;20052;-27
2022/11/13 04:48:59;;;;;;;6.45;5.57;;;9.40;76.40;;;;;;5072504;28;20024;-28
2022/11/13 04:51:25;;;;;;;8.05;5.55;;;9.40;76.50;;;;;;5072605;28;20407;-31
2022/11/13 04:53:50;;;;;;;6.78;5.28;;;9.40;76.60;;;;;;5072483;28;20042;-31
2022/11/13 04:56:16;;;;;;;7.78;5.47;;;9.40;76.60;;;;;;5072420;28;20029;-26
2022/11/13 04:58:41;;;;;;;7.15;5.65;;;9.30;76.70;;;;;;5072430;28;20028;-27
2022/11/13 05:01:07;;;;;;;6.78;5.28;;;9.30;76.80;;;;;;5072199;28;20048;-27
2022/11/13 05:03:32;;;;;;;7.30;5.18;;;9.20;76.80;;;;;;5072216;28;20027;-31
2022/11/13 05:06:06;;;;;;;7.60;5.32;;;9.20;76.90;;;;;;5072275;28;20115;-30
2022/11/13 05:08:32;;;;;;;;;;;9.20;77.00;;;;;;5072490;28;20019;-32
2022/11/13 05:10:57;;;;;;;6.28;4.57;;;9.10;77.00;;;;;;5072148;28;19908;-35
2022/11/13 05:13:23;;;;;;;8.77;5.97;;;9.10;77.10;;;;;;5072009;28;20100;-28
2022/11/13 05:15:49;;;;;;;7.22;5.38;;;9.10;77.10;;;;;;5071915;28;20056;-27
2022/11/13 05:18:14;;;;;;;8.18;5.90;;;9.00;77.10;;;;;;5053910;28;20037;-28
2022/11/13 05:20:40;;;;;;;7.55;5.70;;;9.00;77.10;;;;;;5071687;28;20039;-41
2022/11/13 05:23:05;;;;;;;7.97;5.88;;;9.00;77.20;;;;;;5071844;28;20029;-32
2022/11/13 05:25:31;;;;;;;8.10;5.70;;;9.00;77.20;;;;;;5071909;28;20020;-32
2022/11/13 05:27:57;;;;;;;6.60;5.32;;;9.00;77.30;;;;;;5071950;28;20028;-32
2022/11/13 05:30:23;;;;;;;7.47;5.32;;;9.00;77.30;;;;;;5071732;28;20025;-34
2022/11/13 05:32:49;;;;;;;7.68;5.50;;;9.00;77.30;;;;;;5071831;28;20364;-32
2022/11/13 05:35:15;;;;;;;7.57;5.40;;;8.90;77.20;;;;;;5071818;28;20107;-32
2022/11/13 05:37:40;;;;;;;8.43;6.20;;;8.90;77.20;;;;;;5071698;28;20459;-32
2022/11/13 05:40:06;;;;;;;6.80;5.55;;;8.90;77.30;;;;;;5071601;28;20025;-32
2022/11/13 05:42:32;;;;;;;6.88;5.43;;;8.90;77.30;;;;;;5071647;28;20024;-32
2022/11/13 05:44:57;;;;;;;8.25;5.18;;;8.90;77.20;;;;;;5071771;28;20504;-32
2022/11/13 05:47:23;;;;;;;8.18;5.57;;;8.90;77.20;;;;;;5071770;28;20365;-32
2022/11/13 05:49:49;;;;;;;7.95;5.60;;;8.90;77.10;;;;;;5071616;28;20430;-32
2022/11/13 05:52:14;;;;;;;8.00;5.15;;;8.90;77.10;;;;;;5071417;28;20391;-32
2022/11/13 05:54:40;;;;;;;6.82;5.22;;;8.90;77.00;;;;;;5071500;28;20039;-33
2022/11/13 05:57:05;;;;;;;9.68;5.28;;;8.90;76.90;;;;;;5071631;28;20031;-33
2022/11/13 05:59:31;;;;;;;6.95;5.40;;;8.90;76.80;;;;;;5071516;28;20396;-39
2022/11/13 06:01:56;;;;;;;6.43;5.20;;;8.90;76.80;;;;;;5071266;28;20102;-33
2022/11/13 06:04:22;;;;;;;5.10;4.60;;;8.90;76.70;;;;;;5053140;28;20062;-32
2022/11/13 06:06:48;;;;;;;7.18;5.05;;;8.80;76.60;;;;;;5071427;28;20088;-34
2022/11/13 06:09:17;;;;;;;6.68;4.50;;;8.80;76.60;;;;;;5070946;28;20016;-33
2022/11/13 06:11:43;;;;;;;6.25;4.72;;;8.80;76.50;;;;;;5071694;28;20020;-34
2022/11/13 06:14:09;;;;;;;6.75;4.25;;;8.80;76.50;;;;;;5071394;28;20054;-34
2022/11/13 06:16:37;;;;;;;6.07;4.65;;;8.80;76.50;;;;;;5071263;28;20149;-34
2022/11/13 06:19:07;;;;;;;7.00;4.70;;;8.80;76.50;;;;;;5071374;28;20024;-33
2022/11/13 06:21:35;;;;;;;6.13;4.60;;;8.80;76.50;;;;;;5053430;28;20549;-34
2022/11/13 06:24:01;;;;;;;6.50;4.88;;;8.70;76.40;;;;;;5071344;28;20020;-35
2022/11/13 06:26:32;;;;;;;5.78;4.50;;;8.70;76.50;;;;;;5071270;28;20483;-35
2022/11/13 06:28:59;;;;;;;6.78;4.40;;;8.70;76.60;;;;;;5053207;28;20025;-37
2022/11/13 06:31:27;;;;;;;5.78;4.40;;;8.70;76.60;;;;;;5071187;28;20021;-35
2022/11/13 06:33:54;;;;;;;5.78;4.43;;;8.70;76.60;;;;;;5071196;28;20032;-34
2022/11/13 06:36:39;;;;;;;7.15;4.47;;;8.70;76.60;;;;;;5071178;28;20025;-34
2022/11/13 06:39:07;;;;;;;6.32;4.50;;;8.70;76.60;;;;;;5070706;28;20044;-36
2022/11/13 06:41:32;;;;;;;6.35;4.03;;;8.70;76.70;;;;;;5071045;28;20395;-35
2022/11/13 06:43:59;;;;;;;5.22;4.65;;;8.60;76.70;;;;;;5071240;28;20021;-35
2022/11/13 06:46:26;;;;;;;4.88;4.07;;;8.60;76.70;;;;;;5071074;28;20082;-35
2022/11/13 06:48:52;;;;;;;5.75;4.18;;;8.60;76.70;;;;;;5070902;28;20073;-35
2022/11/13 06:51:20;;;;;;;4.65;3.90;;;8.60;76.70;;;;;;5070833;28;20028;-35
2022/11/13 06:53:46;;;;;;;6.68;4.25;;;8.60;76.70;;;;;;5071073;28;20494;-35
2022/11/13 06:56:12;;;;;;;5.45;4.50;;;8.60;76.80;;;;;;5070951;28;20056;-35
2022/11/13 06:58:38;;;;;;;6.38;4.82;;;8.60;76.80;;;;;;5071203;28;20024;-33
2022/11/13 07:01:15;;;;;;;5.93;4.20;;;8.60;76.80;;;;;;5070363;28;20044;-33
2022/11/13 07:03:41;;;;;;;6.25;4.30;;;8.60;76.70;;;;;;5070804;28;20115;-33
2022/11/13 07:06:21;;;;;;;6.28;4.53;;;8.50;76.70;;;;;;5070869;28;20036;-34
2022/11/13 07:08:47;;;;;;;7.53;4.30;;;8.60;76.70;;;;;;5070954;28;20028;-35
2022/11/13 07:11:15;;;;;;;5.50;4.65;;;8.60;76.70;;;;;;5070657;28;20028;-34
2022/11/13 07:13:41;;;;;;;6.03;4.60;;;8.60;76.60;;;;;;5070727;28;20028;-33
2022/11/13 07:16:08;;;;;;;6.07;4.28;;;8.60;76.60;;;;;;5053000;28;20032;-36
2022/11/13 07:18:34;;;;;;;6.40;4.95;;;8.60;76.60;;;;;;5070777;28;20103;-35
2022/11/13 07:21:08;;;;;;;6.85;4.30;;;8.60;76.50;;;;;;5073270;28;20104;-34
2022/11/13 07:23:35;;;;;;;;;;;8.70;76.50;;;;;;5074706;28;20032;-34
2022/11/13 07:26:04;;;;;;;6.18;4.13;;;8.70;76.40;;;;;;5074241;28;19908;-39
2022/11/13 07:28:30;;;;;;;5.75;4.35;;;8.70;76.40;;;;;;5074276;28;20077;-34
2022/11/13 07:30:59;;;;;;;7.68;4.53;;;8.70;76.30;;;;;;5074309;28;20016;-34
2022/11/13 07:33:24;;;;;;;10.57;4.90;;;8.70;76.30;;;;;;5073911;28;20097;-34
2022/11/13 07:35:53;;;;;;;6.57;5.10;;;8.80;76.30;;;;;;5073970;28;20029;-34
2022/11/13 07:38:19;;;;;;;7.13;5.18;;;8.80;76.20;;;;;;5074435;28;20036;-34
2022/11/13 07:40:44;;;;;;;7.15;6.40;;;8.90;76.20;;;;;;5073787;28;20472;-35
2022/11/13 07:43:10;;;;;;;6.07;5.20;;;8.90;76.10;;;;;;5073793;28;20484;-34
2022/11/13 07:45:35;;;;;;;6.88;4.90;;;8.90;76.10;;;;;;5073847;28;20468;-35
2022/11/13 07:48:02;;;;;;;6.18;4.70;;;9.00;76.20;;;;;;5073674;28;20024;-34
2022/11/13 07:50:30;;;;;;;6.30;4.85;;;9.00;76.10;;;;;;5073814;28;20104;-35
2022/11/13 07:53:01;;;;;;;6.72;4.80;;;9.10;76.10;;;;;;5073544;28;20095;-34
2022/11/13 07:55:27;;;;;;;5.97;4.53;;;9.10;76.00;;;;;;5055558;28;20021;-34
2022/11/13 07:57:57;;;;;;;6.13;4.30;;;9.20;75.80;;;;;;5073695;28;20037;-34
2022/11/13 08:00:27;;;;;;;5.32;4.18;;;9.20;75.70;;;;;;5073419;28;20059;-34
2022/11/13 08:02:53;;;;;;;6.15;4.70;;;9.20;75.60;;;;;;5073681;28;20563;-33
2022/11/13 08:05:19;;;;;;;6.43;5.07;;;9.30;75.70;;;;;;5073433;28;20096;-35
2022/11/13 08:07:49;;;;;;;7.32;5.22;;;9.30;75.60;;;;;;5055523;28;20035;-34
2022/11/13 08:10:16;;;;;;;7.28;4.78;;;9.30;75.60;;;;;;5073371;28;20025;-34
2022/11/13 08:12:42;;;;;;;9.27;5.85;;;9.30;75.60;;;;;;5073465;28;20024;-27
2022/11/13 08:15:09;;;;;;;8.45;5.13;;;9.40;75.60;;;;;;5073151;28;20387;-27
2022/11/13 08:17:34;;;;;;;6.07;4.63;;;9.40;75.50;;;;;;5073352;28;20102;-27
2022/11/13 08:20:00;;;;;;;6.55;4.88;;;9.50;75.40;;;;;;5072929;28;20064;-29
2022/11/13 08:22:25;;;;;;;6.72;5.32;;;9.50;75.30;;;;;;5072877;28;20025;-28
2022/11/13 08:24:54;;;;;;;5.97;4.75;;;9.60;75.30;;;;;;5072838;28;20025;-29
2022/11/13 08:27:20;;;;;;;6.38;5.10;;;9.60;75.20;;;;;;5072889;28;20048;-30
2022/11/13 08:29:47;;;;;;;8.05;5.45;;;9.60;75.00;;;;;;5072854;28;20035;-28
2022/11/13 08:32:17;;;;;;;6.10;5.00;;;9.70;75.00;;;;;;5072536;28;20415;-25
2022/11/13 08:34:42;;;;;;;6.07;5.32;;;9.70;74.90;;;;;;5072897;28;20025;-30
2022/11/13 08:37:08;;;;;;;7.22;5.45;;;9.80;74.90;;;;;;5072843;28;20103;-32
2022/11/13 08:39:34;;;;;;;7.50;5.60;;;9.80;74.80;;;;;;5054935;28;20471;-28
2022/11/13 08:42:00;;;;;;;7.57;5.35;;;9.90;74.80;;;;;;5073071;28;20064;-29
2022/11/13 08:44:26;;;;;;;8.50;4.72;;;9.90;74.70;;;;;;5072796;28;20438;-27
2022/11/13 08:46:52;;;;;;;7.75;5.15;;;10.00;74.70;;;;;;5072646;28;20017;-27
2022/11/13 08:49:17;;;;;;;6.57;5.00;;;10.00;74.60;;;;;;5072361;28;20023;-26
2022/11/13 08:51:43;;;;;;;7.20;5.13;;;10.10;74.50;;;;;;5055012;28;20021;-30
2022/11/13 08:54:08;;;;;;;7.15;5.55;;;10.10;74.40;;;;;;5072469;28;20465;-26
2022/11/13 08:56:34;;;;;;;7.28;5.50;;;10.20;74.40;;;;;;5072450;28;20629;-30
2022/11/13 08:58:59;;;;;;;9.40;5.95;;;10.20;74.20;;;;;;5072543;28;20073;-27
2022/11/13 09:01:25;;;;;;;7.72;5.85;;;10.30;74.20;;;;;;5072056;28;20045;-30
2022/11/13 09:03:50;;;;;;;6.63;5.03;;;10.40;74.20;;;;;;5072344;28;20020;-26
2022/11/13 09:06:16;;;;;;;8.70;5.35;;;10.40;74.10;;;;;;5072162;28;20282;-26
2022/11/13 09:08:42;;;;;;;7.68;5.03;;;10.50;74.00;;;;;;5072266;28;20024;-27
2022/11/13 09:11:08;;;;;;;6.75;5.40;;;10.60;73.80;;;;;;5072227;28;20125;-26
2022/11/13 09:13:34;;;;;;;7.60;5.50;;;10.60;73.60;;;;;;5072133;28;20024;-35
2022/11/13 09:16:01;;;;;;;7.65;5.25;;;10.70;73.70;;;;;;5072239;28;20021;-30
2022/11/13 09:18:27;;;;;;;7.25;5.45;;;10.70;73.50;;;;;;5054144;28;20272;-30
2022/11/13 09:20:53;;;;;;;8.27;5.45;;;10.70;73.40;;;;;;5071932;28;20503;-28
2022/11/13 09:23:19;;;;;;;8.85;5.20;;;10.80;73.30;;;;;;5071783;28;20111;-25
2022/11/13 09:25:45;;;;;;;7.45;5.60;;;10.90;73.30;;;;;;5071857;28;20092;-26
2022/11/13 09:28:11;;;;;;;7.55;5.53;;;10.90;73.20;;;;;;5072023;28;20017;-26
2022/11/13 09:30:38;;;;;;;6.53;5.45;;;11.00;73.20;;;;;;5053881;28;20514;-28
2022/11/13 09:33:04;;;;;;;6.80;5.20;;;11.00;73.10;;;;;;5071923;28;20029;-27
2022/11/13 09:35:34;;;;;;;7.97;5.22;;;11.10;73.00;;;;;;5071700;28;20032;-28
2022/11/13 09:38:05;;;;;;;7.55;5.18;;;11.20;73.00;;;;;;5071757;28;20024;-28
2022/11/13 09:40:56;;;;;;;6.38;4.90;;;11.20;72.80;;;;;;5053639;28;20028;-30
2022/11/13 09:43:41;;;;;;;7.03;4.97;;;11.30;72.70;;;;;;5070810;28;20059;-27
2022/11/13 09:46:24;;;;;;;6.50;4.93;;;11.40;72.70;;;;;;5071864;28;20423;-27
2022/11/13 09:48:56;;;;;;;7.65;5.15;;;11.40;72.60;;;;;;5071752;28;20389;-28
2022/11/13 09:51:26;;;;;;;6.28;4.93;;;11.50;72.50;;;;;;5053499;28;20515;-34
2022/11/13 09:53:52;;;;;;;7.18;5.80;;;11.50;73.10;;;;;;5071787;28;20051;-28
2022/11/13 09:56:28;;;;;;;7.70;5.53;;;11.50;72.30;;;;;;5071896;28;20020;-26
2022/11/13 09:59:19;;;;;;;7.28;5.40;;;11.60;72.20;;;;;;5071641;28;20041;-26
2022/11/13 10:02:06;;;;;;;6.57;5.50;;;11.60;72.00;;;;;;5071560;28;20072;-28
2022/11/13 10:05:01;;;;;;;7.43;5.47;;;11.60;71.90;;;;;;5071584;28;20106;-27
2022/11/13 10:07:45;;;;;;;7.13;5.22;;;11.70;71.80;;;;;;5071398;28;20055;-26
2022/11/13 10:10:19;;;;;;;9.45;5.53;;;11.70;71.80;;;;;;5071354;28;20024;-27
2022/11/13 10:12:48;;;;;;;8.52;5.53;;;11.70;71.60;;;;;;5071477;28;20095;-27
2022/11/13 10:15:16;;;;;;;6.00;4.82;;;11.80;71.50;;;;;;5071796;28;20023;-29
2022/11/13 10:17:54;;;;;;;5.55;4.97;;;11.80;71.30;;;;;;5071095;28;20135;-41
2022/11/13 10:20:47;;;;;;;7.18;5.63;;;11.90;71.10;;;;;;5070978;28;20027;-41
2022/11/13 10:23:32;;;;;;;6.22;5.35;;;12.00;70.90;;;;;;5053150;28;20025;-33
2022/11/13 10:26:14;;;;;;;7.13;5.30;;;12.00;70.80;;;;;;5071210;28;20032;-42
2022/11/13 10:28:40;;;;;;;7.82;5.40;;;12.10;70.70;;;;;;5071374;28;20070;-43
2022/11/13 10:31:10;;;;;;;8.38;5.35;;;12.10;70.60;;;;;;5071074;28;20024;-34
2022/11/13 10:33:38;;;;;;;5.82;5.20;;;12.20;70.40;;;;;;5071279;28;20024;-34
2022/11/13 10:36:41;;;;;;;6.57;5.20;;;12.30;70.40;;;;;;5071379;28;20146;-34
2022/11/13 10:39:08;;;;;;;7.20;5.28;;;12.40;70.10;;;;;;5070920;28;20062;-33
2022/11/13 10:41:48;;;;;;;6.07;4.80;;;12.40;70.10;;;;;;5071315;28;20036;-34
2022/11/13 10:44:29;;;;;;;6.15;4.93;;;12.40;69.80;;;;;;5071358;28;20066;-35
2022/11/13 10:47:15;;;;;;;5.85;4.60;;;12.50;69.60;;;;;;5071377;28;20400;-34
2022/11/13 10:49:41;;;;;;;6.70;5.00;;;12.60;69.40;;;;;;5070921;28;20055;-33
2022/11/13 10:52:24;;;;;;;6.90;4.93;;;12.70;69.40;;;;;;5070950;28;20519;-34
2022/11/13 10:55:04;;;;;;;5.88;4.35;;;12.70;69.00;;;;;;5073879;28;20441;-34
2022/11/13 10:57:33;;;;;;;5.40;4.70;;;12.80;69.00;;;;;;5074781;28;20020;-34
2022/11/13 10:59:59;;;;;;;7.05;4.65;;;12.90;68.80;;;;;;5075144;28;20029;-35
2022/11/13 11:02:27;;;;;;;6.40;4.47;;;12.90;68.60;;;;;;5074622;28;20040;-34
2022/11/13 11:05:27;;;;;;;6.28;4.75;;;13.00;68.60;;;;;;5074709;28;20052;-33
2022/11/13 11:07:54;;;;;;;5.40;4.50;;;13.10;68.40;;;;;;5074090;28;20070;-33
2022/11/13 11:10:20;;;;;;;5.00;4.22;;;13.10;68.80;;;;;;5074398;28;20028;-35
2022/11/13 11:13:05;;;;;;;6.00;4.50;;;13.20;68.00;;;;;;5074564;28;20376;-33
2022/11/13 11:15:46;;;;;;;6.35;4.68;;;13.20;67.80;;;;;;5074754;28;20366;-33
2022/11/13 11:18:18;;;;;;;5.05;4.50;;;13.20;67.70;;;;;;5074336;28;20055;-34
2022/11/13 11:20:56;;;;;;;6.25;4.47;;;13.30;67.70;;;;;;5074137;28;20047;-35
2022/11/13 11:23:35;;;;;;;6.25;4.60;;;13.40;67.60;;;;;;5074407;28;20021;-28
2022/11/13 11:26:14;;;;;;;6.05;4.60;;;13.50;67.60;;;;;;5073962;28;20028;-28
2022/11/13 11:28:58;;;;;;;6.68;4.30;;;13.50;67.30;;;;;;5074098;28;20379;-27
2022/11/13 11:31:32;;;;;;;;;;;13.60;67.20;;;;;;5074450;28;20113;-31
2022/11/13 11:34:16;;;;;;;;;;;13.70;67.20;;;;;;5056487;28;19966;-34
2022/11/13 11:37:15;;;;;;;5.50;3.72;;;13.70;67.30;;;;;;5073988;28;19915;-35
2022/11/13 11:40:02;;;;;;;4.55;3.80;;;13.80;67.20;;;;;;5073969;28;20028;-27
2022/11/13 11:42:44;;;;;;;4.72;4.10;;;13.80;67.10;;;;;;5073699;28;20070;-27
2022/11/13 11:45:15;;;;;;;4.72;3.83;;;13.90;67.00;;;;;;5073982;28;20035;-27
2022/11/13 11:47:41;;;;;;;5.55;4.25;;;13.90;66.90;;;;;;5073827;28;20029;-26
2022/11/13 11:50:16;;;;;;;6.70;4.47;;;13.90;66.70;;;;;;5074681;28;20025;-26
2022/11/13 11:53:01;;;;;;;4.28;3.70;;;14.00;66.70;;;;;;5075137;28;20032;-26
2022/11/13 11:55:50;;;;;;;4.70;4.03;;;14.00;66.60;;;;;;5074931;28;20028;-27
2022/11/13 11:58:44;;;;;;;4.70;3.92;;;14.10;66.60;;;;;;5075165;28;20074;-42
2022/11/13 12:01:27;;;;;;;6.60;4.20;;;14.20;66.50;;;;;;5074894;28;20449;-39
2022/11/13 12:04:01;;;;;;;6.13;4.20;;;14.30;66.50;;;;;;5074714;28;20029;-31
2022/11/13 12:06:33;;;;;;;4.95;4.22;;;14.30;66.40;;;;;;5073992;28;20036;-29
2022/11/13 12:09:27;;;;;;;5.38;4.20;;;14.40;66.30;;;;;;5074679;28;20451;-30
2022/11/13 12:11:55;;;;;;;5.20;4.20;;;14.40;66.10;;;;;;5075051;28;20029;-33
2022/11/13 12:14:51;;;;;;;4.82;4.25;;;14.50;66.20;;;;;;5074704;28;20405;-33
2022/11/13 12:17:38;;;;;;;5.50;4.30;;;14.60;66.10;;;;;;5074609;28;20503;-31
2022/11/13 12:20:41;;;;;;;5.65;3.92;;;14.70;66.00;;;;;;5074795;28;20035;-29
2022/11/13 12:23:32;;;;;;;5.07;4.17;;;14.70;65.80;;;;;;5073741;28;20112;-30
2022/11/13 12:26:19;;;;;;;4.53;4.07;;;14.80;65.80;;;;;;5072891;28;20365;-26
2022/11/13 12:28:59;;;;;;;4.20;3.80;;;14.90;65.70;;;;;;5072903;28;20484;-34
2022/11/13 12:31:55;;;;;;;4.55;3.95;;;15.00;65.70;;;;;;5072803;28;20025;-38
2022/11/13 12:34:47;;;;;;;5.43;3.90;;;15.00;65.30;;;;;;5073187;28;20213;-43
2022/11/13 12:37:33;;;;;;;4.93;4.28;;;15.10;65.20;;;;;;5072635;28;20028;-43
2022/11/13 12:40:11;;;;;;;4.53;3.65;;;15.20;65.10;;;;;;5072720;28;20044;-43
2022/11/13 12:42:52;;;;;;;5.80;3.92;;;15.30;65.00;;;;;;5072498;28;20029;-40
2022/11/13 12:45:36;;;;;;;4.88;3.40;;;15.30;64.80;;;;;;5072519;28;20028;-38
2022/11/13 12:48:19;;;;;;;3.85;3.28;;;15.40;64.70;;;;;;5072452;28;20028;-42
2022/11/13 12:51:03;;;;;;;5.72;3.10;;;15.40;64.50;;;;;;5072716;28;20033;-32
2022/11/13 12:53:41;;;;;;;5.35;3.22;;;15.50;64.20;;;;;;5072709;28;20024;-33
2022/11/13 12:56:27;;;;;;;4.20;3.22;;;15.60;64.20;;;;;;5072573;28;20107;-27
2022/11/13 12:59:04;;;;;;;3.17;2.83;;;15.60;63.90;;;;;;5072096;28;20040;-30
2022/11/13 13:01:41;;;;;;;5.50;2.95;;;15.70;64.40;;;;;;5071786;28;20079;-30
2022/11/13 13:04:31;;;;;;;3.80;2.80;;;15.70;63.60;;;;;;5071994;28;20031;-34
2022/11/13 13:07:17;;;;;;;4.22;2.78;;;15.80;63.30;;;;;;5072085;28;20021;-30
2022/11/13 13:09:54;;;;;;;3.03;2.70;;;15.90;63.10;;;;;;5072184;28;20099;-30
2022/11/13 13:12:23;;;;;;;3.80;3.10;;;15.90;62.90;;;;;;5072323;28;20032;-33